createdAt,value
2023-04-12T00:01:01.002Z,46.04
2023-04-12T00:02:04.188Z,45.82
2023-04-12T00:03:06.663Z,45.86
2023-04-12T00:04:17.357Z,46.12
2023-04-12T00:05:21.679Z,45.90
2023-04-12T00:06:24.285Z,46.00
2023-04-12T00:07:26.210Z,46.08
2023-04-12T00:08:29.308Z,46.03
2023-04-12T00:09:31.911Z,45.82
2023-04-12T00:10:34.225Z,45.87
2023-04-12T00:11:36.210Z,45.85
2023-04-12T00:12:38.515Z,45.92
2023-04-12T00:13:49.973Z,45.75
2023-04-12T00:14:51.991Z,45.58
2023-04-12T00:15:53.978Z,45.64
2023-04-12T00:16:56.554Z,45.51
2023-04-12T00:17:58.567Z,45.77
2023-04-12T00:19:00.563Z,45.67
2023-04-12T00:20:03.971Z,45.87
2023-04-12T00:21:07.288Z,45.95
2023-04-12T00:22:10.332Z,46.01
2023-04-12T00:23:13.433Z,46.04
2023-04-12T00:24:15.530Z,46.01
2023-04-12T00:25:17.577Z,46.26
2023-04-12T00:26:20.272Z,46.42
2023-04-12T00:27:22.332Z,46.04
2023-04-12T00:28:24.929Z,46.13
2023-04-12T00:29:27.387Z,46.17
2023-04-12T00:30:30.369Z,46.08
2023-04-12T00:31:32.527Z,46.13
2023-04-12T00:32:37.246Z,46.09
2023-04-12T00:33:39.615Z,46.11
2023-04-12T00:34:42.075Z,46.02
2023-04-12T00:35:43.972Z,45.99
2023-04-12T00:36:47.000Z,46.15
2023-04-12T00:37:50.555Z,46.03
2023-04-12T00:38:53.235Z,46.04
2023-04-12T00:39:55.163Z,45.86
2023-04-12T00:40:57.706Z,45.94
2023-04-12T00:42:04.832Z,46.00
2023-04-12T00:43:09.979Z,46.08
2023-04-12T00:44:12.129Z,46.27
2023-04-12T00:45:14.062Z,46.38
2023-04-12T00:46:17.764Z,46.21
2023-04-12T00:47:20.158Z,46.32
2023-04-12T00:48:23.901Z,46.23
2023-04-12T00:49:28.145Z,46.36
2023-04-12T00:50:30.900Z,46.33
2023-04-12T00:51:33.117Z,46.41
2023-04-12T00:52:35.057Z,46.44
2023-04-12T00:53:37.553Z,46.33
2023-04-12T00:54:41.044Z,46.41
2023-04-12T00:55:44.179Z,46.70
2023-04-12T00:56:46.279Z,46.63
2023-04-12T00:57:48.242Z,46.74
2023-04-12T00:58:50.124Z,46.79
2023-04-12T00:59:52.993Z,46.70
2023-04-12T01:00:55.214Z,46.69
2023-04-12T01:01:57.591Z,46.75
2023-04-12T01:03:00.068Z,46.86
2023-04-12T01:04:02.118Z,46.91
2023-04-12T01:05:06.430Z,47.08
2023-04-12T01:06:34.102Z,46.96
2023-04-12T01:07:54.475Z,47.03
2023-04-12T01:09:20.272Z,47.21
2023-04-12T01:10:46.129Z,47.23
2023-04-12T01:11:59.428Z,47.24
2023-04-12T01:13:18.323Z,47.26
2023-04-12T01:15:34.764Z,47.67
2023-04-12T01:17:01.501Z,47.84
2023-04-12T01:18:13.868Z,47.82
2023-04-12T01:19:35.601Z,47.75
2023-04-12T01:20:43.064Z,47.83
2023-04-12T01:21:54.319Z,48.02
2023-04-12T01:23:12.263Z,48.31
2023-04-12T01:24:33.786Z,48.20
2023-04-12T01:25:56.326Z,48.30
2023-04-12T01:26:59.169Z,48.41
2023-04-12T01:28:05.385Z,48.33
2023-04-12T01:29:09.273Z,48.37
2023-04-12T01:30:15.342Z,48.63
2023-04-12T01:31:17.887Z,48.57
2023-04-12T01:32:20.182Z,48.78
2023-04-12T01:33:21.954Z,48.95
2023-04-12T01:34:24.762Z,48.80
2023-04-12T01:35:30.392Z,48.92
2023-04-12T01:36:33.030Z,48.75
2023-04-12T01:37:37.227Z,48.71
2023-04-12T01:38:40.713Z,48.91
2023-04-12T01:39:43.215Z,49.08
2023-04-12T01:40:45.387Z,49.19
2023-04-12T01:41:47.368Z,49.17
2023-04-12T01:42:49.414Z,49.19
2023-04-12T01:43:51.468Z,49.08
2023-04-12T01:44:53.531Z,49.03
2023-04-12T01:45:55.811Z,49.29
2023-04-12T01:46:58.563Z,49.20
2023-04-12T01:48:01.331Z,49.15
2023-04-12T01:49:03.344Z,49.29
2023-04-12T01:50:18.677Z,49.39
2023-04-12T01:51:51.871Z,49.45
2023-04-12T01:53:12.197Z,49.14
2023-04-12T01:55:27.382Z,49.34
2023-04-12T01:56:31.622Z,49.52
2023-04-12T01:57:33.643Z,49.73
2023-04-12T01:58:36.185Z,49.71
2023-04-12T01:59:41.789Z,49.62
2023-04-12T02:00:44.893Z,49.71
2023-04-12T02:01:47.105Z,49.71
2023-04-12T02:02:49.389Z,49.68
2023-04-12T02:03:51.957Z,49.69
2023-04-12T02:04:54.316Z,49.91
2023-04-12T02:05:57.461Z,49.78
2023-04-12T02:06:59.529Z,49.78
2023-04-12T02:08:02.177Z,49.89
2023-04-12T02:09:05.560Z,49.95
2023-04-12T02:10:13.990Z,49.80
2023-04-12T02:11:15.964Z,49.86
2023-04-12T02:12:19.377Z,49.97
2023-04-12T02:13:21.446Z,49.93
2023-04-12T02:14:23.413Z,50.01
2023-04-12T02:15:28.709Z,50.06
2023-04-12T02:16:31.446Z,50.05
2023-04-12T02:17:34.189Z,50.26
2023-04-12T02:18:36.732Z,50.12
2023-04-12T02:19:38.971Z,50.20
2023-04-12T02:20:41.620Z,50.11
2023-04-12T02:21:44.559Z,50.11
2023-04-12T02:22:46.775Z,50.17
2023-04-12T02:23:48.703Z,50.32
2023-04-12T02:24:50.662Z,50.28
2023-04-12T02:25:53.479Z,50.30
2023-04-12T02:26:58.501Z,50.35
2023-04-12T02:28:00.984Z,50.59
2023-04-12T02:29:04.552Z,50.48
2023-04-12T02:30:09.055Z,50.56
2023-04-12T02:31:12.235Z,50.58
2023-04-12T02:32:15.621Z,50.49
2023-04-12T02:33:18.427Z,50.51
2023-04-12T02:34:20.854Z,50.54
2023-04-12T02:35:25.492Z,50.79
2023-04-12T02:36:30.052Z,50.82
2023-04-12T02:37:32.107Z,50.89
2023-04-12T02:38:35.287Z,50.93
2023-04-12T02:39:38.113Z,50.88
2023-04-12T02:40:41.044Z,50.89
2023-04-12T02:41:45.145Z,50.84
2023-04-12T02:42:48.061Z,50.86
2023-04-12T02:43:51.750Z,50.88
2023-04-12T02:44:54.065Z,50.85
2023-04-12T02:45:56.679Z,51.06
2023-04-12T02:46:59.469Z,50.96
2023-04-12T02:48:02.539Z,50.99
2023-04-12T02:49:05.124Z,51.18
2023-04-12T02:50:10.289Z,51.21
2023-04-12T02:51:16.904Z,51.27
2023-04-12T02:52:19.170Z,51.22
2023-04-12T02:53:26.531Z,51.28
2023-04-12T02:54:30.604Z,51.19
2023-04-12T02:55:33.302Z,51.14
2023-04-12T02:56:36.720Z,51.40
2023-04-12T02:57:40.618Z,51.42
2023-04-12T02:58:43.001Z,51.41
2023-04-12T02:59:45.952Z,51.33
2023-04-12T03:00:50.139Z,51.24
2023-04-12T03:01:54.721Z,51.24
2023-04-12T03:03:02.438Z,51.39
2023-04-12T03:04:05.672Z,51.30
2023-04-12T03:05:15.736Z,51.18
2023-04-12T03:06:18.670Z,51.38
2023-04-12T03:07:21.284Z,51.33
2023-04-12T03:08:28.407Z,51.36
2023-04-12T03:09:32.493Z,51.99
2023-04-12T03:10:34.904Z,53.60
2023-04-12T03:11:38.030Z,54.54
2023-04-12T03:12:40.758Z,55.06
2023-04-12T03:13:53.516Z,54.86
2023-04-12T03:14:56.056Z,54.45
2023-04-12T03:16:00.122Z,53.81
2023-04-12T03:17:04.677Z,53.86
2023-04-12T03:18:08.041Z,53.76
2023-04-12T03:19:12.296Z,53.30
2023-04-12T03:20:15.779Z,53.11
2023-04-12T03:21:19.674Z,53.13
2023-04-12T03:22:22.134Z,52.90
2023-04-12T03:23:26.051Z,52.64
2023-04-12T03:24:29.941Z,52.52
2023-04-12T03:25:32.643Z,52.46
2023-04-12T03:26:36.645Z,52.30
2023-04-12T03:27:40.691Z,51.99
2023-04-12T03:28:42.734Z,52.10
2023-04-12T03:29:44.795Z,51.90
2023-04-12T03:30:47.653Z,51.96
2023-04-12T03:31:50.743Z,51.99
2023-04-12T03:32:53.631Z,51.81
2023-04-12T03:33:57.148Z,51.78
2023-04-12T03:35:00.026Z,51.79
2023-04-12T03:36:03.408Z,51.92
2023-04-12T03:37:07.393Z,51.98
2023-04-12T03:38:14.121Z,51.76
2023-04-12T03:39:17.135Z,51.88
2023-04-12T03:40:20.570Z,51.90
2023-04-12T03:41:24.904Z,51.92
2023-04-12T03:42:33.550Z,51.95
2023-04-12T03:43:35.063Z,52.08
2023-04-12T03:44:38.962Z,51.91
2023-04-12T03:45:42.884Z,52.12
2023-04-12T03:46:45.947Z,52.19
2023-04-12T03:47:48.750Z,52.12
2023-04-12T03:48:51.341Z,52.12
2023-04-12T03:50:10.223Z,52.19
2023-04-12T03:50:59.679Z,52.10
2023-04-12T03:53:20.713Z,52.03
2023-04-12T03:54:23.064Z,52.18
2023-04-12T03:55:35.560Z,52.27
2023-04-12T03:56:39.201Z,52.20
2023-04-12T03:57:43.708Z,52.10
2023-04-12T03:58:47.330Z,52.19
2023-04-12T03:59:50.075Z,52.17
2023-04-12T04:00:54.219Z,51.83
2023-04-12T04:01:56.491Z,51.98
2023-04-12T04:03:00.012Z,52.06
2023-04-12T04:04:03.656Z,51.99
2023-04-12T04:05:07.909Z,52.04
2023-04-12T04:06:11.521Z,52.15
2023-04-12T04:07:14.182Z,52.17
2023-04-12T04:08:18.329Z,52.30
2023-04-12T04:09:22.589Z,52.49
2023-04-12T04:11:37.511Z,52.41
2023-04-12T04:12:41.666Z,52.61
2023-04-12T04:13:45.560Z,52.53
2023-04-12T04:14:49.758Z,52.64
2023-04-12T04:16:04.812Z,52.48
2023-04-12T04:17:07.002Z,52.59
2023-04-12T04:18:09.757Z,52.50
2023-04-12T04:19:12.117Z,52.46
2023-04-12T04:20:17.113Z,52.54
2023-04-12T04:21:20.943Z,52.81
2023-04-12T04:22:24.941Z,52.77
2023-04-12T04:23:27.943Z,52.87
2023-04-12T04:24:31.028Z,52.68
2023-04-12T04:25:35.376Z,53.06
2023-04-12T04:26:40.874Z,52.86
2023-04-12T04:27:44.974Z,53.01
2023-04-12T04:28:48.467Z,53.08
2023-04-12T04:29:52.291Z,53.16
2023-04-12T04:30:54.997Z,53.14
2023-04-12T04:31:58.117Z,53.15
2023-04-12T04:33:01.385Z,53.07
2023-04-12T04:34:04.521Z,53.22
2023-04-12T04:35:07.996Z,53.15
2023-04-12T04:36:13.501Z,53.20
2023-04-12T04:37:17.451Z,53.19
2023-04-12T04:38:19.836Z,53.21
2023-04-12T04:39:22.823Z,53.07
2023-04-12T04:40:25.236Z,53.07
2023-04-12T04:41:29.367Z,53.14
2023-04-12T04:42:33.587Z,53.30
2023-04-12T04:43:37.194Z,53.23
2023-04-12T04:44:39.627Z,53.19
2023-04-12T04:45:43.597Z,53.25
2023-04-12T04:46:46.077Z,53.30
2023-04-12T04:47:48.163Z,53.45
2023-04-12T04:48:50.818Z,53.43
2023-04-12T04:49:53.404Z,53.49
2023-04-12T04:51:00.572Z,53.31
2023-04-12T04:52:03.654Z,53.41
2023-04-12T04:53:07.381Z,53.34
2023-04-12T04:54:09.373Z,53.44
2023-04-12T04:55:14.105Z,53.57
2023-04-12T04:56:18.433Z,53.45
2023-04-12T04:57:21.910Z,53.50
2023-04-12T04:58:24.437Z,53.61
2023-04-12T04:59:26.836Z,53.53
2023-04-12T05:00:38.286Z,53.51
2023-04-12T05:01:40.555Z,53.48
2023-04-12T05:02:43.206Z,53.59
2023-04-12T05:03:46.656Z,53.62
2023-04-12T05:04:49.340Z,53.79
2023-04-12T05:05:54.442Z,53.75
2023-04-12T05:06:56.842Z,53.83
2023-04-12T05:08:00.488Z,53.86
2023-04-12T05:09:04.368Z,53.78
2023-04-12T05:10:10.068Z,53.74
2023-04-12T05:11:14.465Z,54.00
2023-04-12T05:12:16.691Z,53.95
2023-04-12T05:13:20.579Z,54.03
2023-04-12T05:14:24.078Z,54.05
2023-04-12T05:15:26.174Z,54.09
2023-04-12T05:16:29.055Z,54.11
2023-04-12T05:17:31.263Z,53.97
2023-04-12T05:18:33.493Z,53.96
2023-04-12T05:19:35.631Z,53.93
2023-04-12T05:20:39.197Z,53.95
2023-04-12T05:21:41.137Z,53.92
2023-04-12T05:22:44.134Z,53.96
2023-04-12T05:23:46.637Z,53.97
2023-04-12T05:24:49.265Z,54.06
2023-04-12T05:25:51.359Z,54.21
2023-04-12T05:26:54.803Z,54.08
2023-04-12T05:27:57.792Z,54.21
2023-04-12T05:29:00.320Z,54.04
2023-04-12T05:30:03.995Z,53.98
2023-04-12T05:31:06.528Z,54.09
2023-04-12T05:32:12.182Z,54.16
2023-04-12T05:33:14.671Z,54.06
2023-04-12T05:34:18.564Z,54.24
2023-04-12T05:35:23.041Z,54.18
2023-04-12T05:36:28.032Z,54.18
2023-04-12T05:37:31.153Z,54.28
2023-04-12T05:38:33.675Z,54.18
2023-04-12T05:39:38.169Z,54.26
2023-04-12T05:40:41.358Z,54.29
2023-04-12T05:41:43.640Z,54.22
2023-04-12T05:42:46.161Z,54.16
2023-04-12T05:43:48.733Z,54.15
2023-04-12T05:44:51.640Z,54.03
2023-04-12T05:45:55.687Z,54.20
2023-04-12T05:46:58.612Z,54.27
2023-04-12T05:48:00.938Z,54.26
2023-04-12T05:49:03.598Z,54.25
2023-04-12T05:50:07.739Z,54.32
2023-04-12T05:51:11.924Z,54.32
2023-04-12T05:52:14.391Z,54.33
2023-04-12T05:53:16.615Z,54.49
2023-04-12T05:54:19.971Z,54.47
2023-04-12T05:55:22.655Z,54.37
2023-04-12T05:56:24.700Z,54.50
2023-04-12T05:57:26.794Z,54.52
2023-04-12T05:58:29.323Z,54.53
2023-04-12T05:59:31.378Z,54.47
2023-04-12T06:00:34.733Z,54.55
2023-04-12T06:01:37.237Z,54.51
2023-04-12T06:02:40.154Z,54.47
2023-04-12T06:03:44.905Z,54.57
2023-04-12T06:04:51.018Z,54.55
2023-04-12T06:05:52.851Z,54.66
2023-04-12T06:06:54.896Z,54.54
2023-04-12T06:07:56.957Z,54.61
2023-04-12T06:08:59.106Z,54.66
2023-04-12T06:10:03.652Z,54.39
2023-04-12T06:11:05.964Z,54.60
2023-04-12T06:12:08.602Z,54.80
2023-04-12T06:13:11.146Z,54.72
2023-04-12T06:14:15.076Z,54.77
2023-04-12T06:15:17.144Z,54.73
2023-04-12T06:16:19.350Z,54.73
2023-04-12T06:17:21.489Z,54.84
2023-04-12T06:18:24.039Z,54.81
2023-04-12T06:19:26.575Z,54.74
2023-04-12T06:20:29.508Z,54.72
2023-04-12T06:21:32.248Z,54.71
2023-04-12T06:22:35.651Z,54.82
2023-04-12T06:23:37.749Z,54.80
2023-04-12T06:24:39.898Z,54.83
2023-04-12T06:25:42.467Z,54.82
2023-04-12T06:26:45.188Z,54.85
2023-04-12T06:27:48.041Z,54.75
2023-04-12T06:28:51.628Z,54.92
2023-04-12T06:29:54.088Z,54.94
2023-04-12T06:30:56.808Z,54.97
2023-04-12T06:31:59.459Z,54.95
2023-04-12T06:33:01.737Z,54.86
2023-04-12T06:34:04.224Z,54.90
2023-04-12T06:35:07.648Z,54.92
2023-04-12T06:36:11.515Z,54.93
2023-04-12T06:37:14.744Z,54.94
2023-04-12T06:38:19.745Z,54.88
2023-04-12T06:39:21.865Z,54.89
2023-04-12T06:40:23.911Z,54.92
2023-04-12T06:41:26.080Z,54.94
2023-04-12T06:42:29.962Z,54.85
2023-04-12T06:43:32.021Z,54.89
2023-04-12T06:44:33.957Z,54.93
2023-04-12T06:45:36.562Z,55.05
2023-04-12T06:46:38.708Z,54.94
2023-04-12T06:47:40.932Z,55.09
2023-04-12T06:48:42.893Z,55.10
2023-04-12T06:49:45.326Z,54.96
2023-04-12T06:50:47.947Z,54.99
2023-04-12T06:51:50.036Z,54.97
2023-04-12T06:52:51.970Z,55.03
2023-04-12T06:53:53.923Z,55.10
2023-04-12T06:54:56.464Z,55.25
2023-04-12T06:56:04.880Z,55.21
2023-04-12T06:57:09.953Z,55.23
2023-04-12T06:58:14.203Z,55.08
2023-04-12T06:59:16.731Z,55.03
2023-04-12T07:00:22.566Z,55.17
2023-04-12T07:01:28.365Z,55.25
2023-04-12T07:02:30.685Z,55.27
2023-04-12T07:03:33.751Z,55.44
2023-04-12T07:04:36.034Z,55.24
2023-04-12T07:05:38.643Z,55.25
2023-04-12T07:06:45.563Z,55.25
2023-04-12T07:07:47.680Z,55.29
2023-04-12T07:08:49.530Z,55.23
2023-04-12T07:09:57.415Z,55.04
2023-04-12T07:11:08.600Z,55.14
2023-04-12T07:12:05.005Z,55.10
2023-04-12T07:13:08.701Z,55.23
2023-04-12T07:14:13.420Z,55.33
2023-04-12T07:15:15.611Z,55.32
2023-04-12T07:16:18.009Z,55.33
2023-04-12T07:17:20.017Z,55.39
2023-04-12T07:18:21.983Z,55.30
2023-04-12T07:19:24.201Z,55.43
2023-04-12T07:20:28.282Z,55.38
2023-04-12T07:21:31.327Z,55.34
2023-04-12T07:22:33.612Z,55.24
2023-04-12T07:23:35.545Z,55.22
2023-04-12T07:24:37.403Z,55.23
2023-04-12T07:25:39.396Z,55.31
2023-04-12T07:26:42.624Z,55.11
2023-04-12T07:27:44.645Z,55.28
2023-04-12T07:28:46.663Z,55.16
2023-04-12T07:29:51.414Z,55.18
2023-04-12T07:30:53.645Z,55.28
2023-04-12T07:31:55.607Z,55.42
2023-04-12T07:33:08.391Z,55.34
2023-04-12T07:34:01.594Z,55.21
2023-04-12T07:35:05.442Z,55.17
2023-04-12T07:36:09.520Z,55.25
2023-04-12T07:37:13.776Z,55.32
2023-04-12T07:38:16.997Z,55.17
2023-04-12T07:39:21.998Z,55.25
2023-04-12T07:40:24.524Z,55.23
2023-04-12T07:41:26.855Z,55.42
2023-04-12T07:42:28.793Z,55.36
2023-04-12T07:43:30.966Z,55.43
2023-04-12T07:44:37.075Z,55.29
2023-04-12T07:45:39.245Z,55.32
2023-04-12T07:46:42.083Z,55.36
2023-04-12T07:47:46.029Z,55.56
2023-04-12T07:48:49.248Z,55.38
2023-04-12T07:49:51.531Z,55.39
2023-04-12T07:50:54.762Z,55.59
2023-04-12T07:51:58.948Z,55.67
2023-04-12T07:53:24.289Z,55.63
2023-04-12T07:54:29.561Z,55.53
2023-04-12T07:55:34.099Z,55.55
2023-04-12T07:56:39.087Z,55.61
2023-04-12T07:57:46.005Z,55.51
2023-04-12T07:58:48.528Z,55.51
2023-04-12T07:59:51.049Z,55.49
2023-04-12T08:00:54.304Z,55.66
2023-04-12T08:02:04.025Z,55.62
2023-04-12T08:03:13.372Z,55.58
2023-04-12T08:04:15.731Z,55.60
2023-04-12T08:05:20.072Z,55.49
2023-04-12T08:06:22.752Z,55.66
2023-04-12T08:07:28.910Z,55.66
2023-04-12T08:08:48.807Z,55.73
2023-04-12T08:09:57.435Z,55.67
2023-04-12T08:11:10.486Z,55.49
2023-04-12T08:12:12.867Z,55.54
2023-04-12T08:13:14.833Z,55.47
2023-04-12T08:14:22.216Z,55.50
2023-04-12T08:15:24.949Z,55.63
2023-04-12T08:16:32.291Z,55.59
2023-04-12T08:17:36.636Z,55.56
2023-04-12T08:18:42.663Z,55.60
2023-04-12T08:19:44.669Z,55.62
2023-04-12T08:21:00.005Z,55.74
2023-04-12T08:22:04.193Z,55.60
2023-04-12T08:23:08.313Z,55.83
2023-04-12T08:24:13.092Z,55.76
2023-04-12T08:25:15.423Z,55.89
2023-04-12T08:26:19.287Z,55.84
2023-04-12T08:27:24.962Z,55.74
2023-04-12T08:28:29.153Z,55.77
2023-04-12T08:29:31.336Z,55.83
2023-04-12T08:30:38.456Z,55.88
2023-04-12T08:31:44.707Z,55.92
2023-04-12T08:32:47.415Z,55.86
2023-04-12T08:33:55.611Z,55.77
2023-04-12T08:34:58.918Z,55.84
2023-04-12T08:36:04.466Z,55.76
2023-04-12T08:37:06.537Z,55.75
2023-04-12T08:38:13.700Z,55.83
2023-04-12T08:39:19.309Z,55.72
2023-04-12T08:40:23.282Z,55.82
2023-04-12T08:41:26.299Z,55.86
2023-04-12T08:42:34.853Z,55.79
2023-04-12T08:43:40.109Z,55.87
2023-04-12T08:44:44.004Z,56.04
2023-04-12T08:45:48.633Z,55.98
2023-04-12T08:46:55.985Z,55.98
2023-04-12T08:48:04.737Z,56.05
2023-04-12T08:49:10.563Z,55.91
2023-04-12T08:50:14.554Z,56.00
2023-04-12T08:51:21.736Z,55.96
2023-04-12T08:52:25.808Z,56.03
2023-04-12T08:53:28.355Z,55.99
2023-04-12T08:54:30.668Z,56.08
2023-04-12T08:55:37.141Z,55.99
2023-04-12T08:56:43.286Z,56.07
2023-04-12T08:57:52.303Z,56.12
2023-04-12T08:58:57.853Z,56.21
2023-04-12T09:00:02.310Z,56.05
2023-04-12T09:01:13.418Z,56.17
2023-04-12T09:02:17.826Z,56.12
2023-04-12T09:03:21.433Z,56.22
2023-04-12T09:04:26.310Z,56.03
2023-04-12T09:05:29.547Z,55.88
2023-04-12T09:06:41.169Z,55.84
2023-04-12T09:07:43.165Z,55.85
2023-04-12T09:11:38.798Z,55.88
2023-04-12T09:12:48.435Z,55.96
2023-04-12T09:13:52.997Z,55.69
2023-04-12T09:16:17.447Z,55.87
2023-04-12T09:17:27.294Z,56.16
2023-04-12T09:18:32.850Z,56.04
2023-04-12T09:19:36.844Z,56.22
2023-04-12T09:20:39.438Z,56.22
2023-04-12T09:21:54.588Z,56.15
2023-04-12T09:22:56.990Z,56.06
2023-04-12T09:25:17.417Z,56.00
2023-04-12T09:26:30.192Z,56.08
2023-04-12T09:27:51.957Z,55.92
2023-04-12T09:28:54.490Z,55.98
2023-04-12T09:30:09.889Z,56.11
2023-04-12T09:31:16.575Z,56.06
2023-04-12T09:32:26.026Z,56.07
2023-04-12T09:33:37.599Z,56.09
2023-04-12T09:34:39.968Z,56.28
2023-04-12T09:35:44.367Z,56.38
2023-04-12T09:36:49.498Z,56.38
2023-04-12T09:38:07.904Z,56.28
2023-04-12T09:39:13.006Z,56.29
2023-04-12T09:40:16.753Z,56.48
2023-04-12T09:41:23.700Z,56.49
2023-04-12T09:42:33.664Z,56.34
2023-04-12T09:43:38.559Z,56.38
2023-04-12T09:44:41.855Z,56.33
2023-04-12T09:45:44.386Z,56.53
2023-04-12T09:46:50.332Z,56.26
2023-04-12T09:49:06.329Z,56.46
2023-04-12T09:50:14.329Z,56.51
2023-04-12T09:51:35.105Z,56.49
2023-04-12T09:52:45.238Z,56.37
2023-04-12T09:53:47.917Z,56.48
2023-04-12T09:54:49.941Z,56.54
2023-04-12T09:55:55.557Z,56.42
2023-04-12T09:56:57.817Z,56.31
2023-04-12T09:59:14.879Z,56.44
2023-04-12T10:00:23.568Z,56.58
2023-04-12T10:01:30.104Z,56.45
2023-04-12T10:02:36.286Z,56.29
2023-04-12T10:03:38.889Z,56.35
2023-04-12T10:04:42.334Z,56.47
2023-04-12T10:05:45.748Z,56.34
2023-04-12T10:06:49.692Z,56.45
2023-04-12T10:07:54.783Z,56.55
2023-04-12T10:08:58.620Z,56.33
2023-04-12T10:10:01.318Z,56.42
2023-04-12T10:11:05.230Z,56.35
2023-04-12T10:12:08.486Z,56.52
2023-04-12T10:13:12.599Z,56.61
2023-04-12T10:14:20.765Z,56.56
2023-04-12T10:15:22.668Z,56.44
2023-04-12T10:16:30.013Z,56.31
2023-04-12T10:17:36.070Z,56.21
2023-04-12T10:18:40.065Z,56.22
2023-04-12T10:19:43.926Z,56.11
2023-04-12T10:20:48.862Z,56.13
2023-04-12T10:22:01.492Z,56.38
2023-04-12T10:23:04.949Z,56.34
2023-04-12T10:24:09.030Z,56.35
2023-04-12T10:25:13.812Z,56.44
2023-04-12T10:26:18.108Z,56.41
2023-04-12T10:27:27.613Z,56.39
2023-04-12T10:28:30.571Z,56.43
2023-04-12T10:29:33.291Z,56.34
2023-04-12T10:30:36.036Z,56.31
2023-04-12T10:31:38.203Z,56.19
2023-04-12T10:32:40.369Z,56.31
2023-04-12T10:33:48.712Z,56.43
2023-04-12T10:34:58.867Z,56.32
2023-04-12T10:36:03.909Z,56.42
2023-04-12T10:37:07.564Z,56.24
2023-04-12T10:38:09.693Z,56.42
2023-04-12T10:39:11.846Z,56.55
2023-04-12T10:40:16.608Z,56.44
2023-04-12T10:41:21.096Z,56.52
2023-04-12T10:42:28.691Z,56.61
2023-04-12T10:43:32.683Z,56.71
2023-04-12T10:44:37.000Z,56.67
2023-04-12T10:45:42.469Z,56.69
2023-04-12T10:46:47.639Z,56.62
2023-04-12T10:47:56.292Z,56.53
2023-04-12T10:50:31.569Z,56.68
2023-04-12T10:51:37.789Z,56.74
2023-04-12T10:52:41.854Z,56.58
2023-04-12T10:53:48.281Z,56.63
2023-04-12T10:55:08.811Z,56.64
2023-04-12T10:57:51.375Z,56.51
2023-04-12T10:59:03.514Z,56.61
2023-04-12T11:00:13.597Z,56.69
2023-04-12T11:01:17.157Z,56.85
2023-04-12T11:02:19.358Z,56.70
2023-04-12T11:03:28.852Z,56.68
2023-04-12T11:04:35.306Z,56.62
2023-04-12T11:07:12.393Z,56.60
2023-04-12T11:08:26.247Z,56.92
2023-04-12T11:09:40.901Z,56.86
2023-04-12T11:10:45.801Z,56.86
2023-04-12T11:11:49.925Z,56.68
2023-04-12T11:12:52.266Z,56.77
2023-04-12T11:13:54.929Z,56.67
2023-04-12T11:14:59.869Z,56.64
2023-04-12T11:16:08.388Z,56.63
2023-04-12T11:17:18.732Z,56.63
2023-04-12T11:18:21.442Z,56.58
2023-04-12T11:19:23.913Z,56.60
2023-04-12T11:21:45.858Z,56.55
2023-04-12T11:22:49.701Z,56.65
2023-04-12T11:23:52.711Z,56.79
2023-04-12T11:24:58.045Z,56.82
2023-04-12T11:26:03.630Z,56.81
2023-04-12T11:27:06.184Z,56.82
2023-04-12T11:28:17.527Z,56.85
2023-04-12T11:29:14.842Z,56.83
2023-04-12T11:30:17.664Z,56.88
2023-04-12T11:31:20.272Z,56.89
2023-04-12T11:32:24.332Z,56.86
2023-04-12T11:33:40.291Z,56.94
2023-04-12T11:34:43.746Z,56.89
2023-04-12T11:35:45.819Z,56.97
2023-04-12T11:36:52.926Z,56.96
2023-04-12T11:37:55.364Z,56.92
2023-04-12T11:38:58.256Z,56.95
2023-04-12T11:40:01.435Z,56.98
2023-04-12T11:41:05.436Z,57.04
2023-04-12T11:43:20.357Z,57.00
2023-04-12T11:44:23.144Z,57.08
2023-04-12T11:45:25.089Z,59.51
2023-04-12T11:46:34.785Z,59.61
2023-04-12T11:47:39.079Z,59.38
2023-04-12T11:48:44.984Z,58.91
2023-04-12T11:52:33.440Z,58.21
2023-04-12T11:53:36.045Z,58.02
2023-04-12T11:54:43.595Z,57.79
2023-04-12T11:55:48.713Z,57.71
2023-04-12T11:56:59.758Z,57.66
2023-04-12T11:58:04.375Z,57.62
2023-04-12T11:59:09.058Z,57.62
2023-04-12T12:00:14.270Z,57.71
2023-04-12T12:01:19.118Z,57.65
2023-04-12T12:02:25.887Z,57.71
2023-04-12T12:04:31.696Z,57.70
2023-04-12T12:05:34.202Z,57.70
2023-04-12T12:06:39.333Z,57.74
2023-04-12T12:07:44.520Z,57.72
2023-04-12T12:08:49.675Z,57.62
2023-04-12T12:09:56.225Z,57.75
2023-04-12T12:12:00.698Z,57.90
2023-04-12T12:14:33.066Z,57.86
2023-04-12T12:15:37.165Z,58.01
2023-04-12T12:16:43.586Z,57.99
2023-04-12T12:17:46.307Z,57.98
2023-04-12T12:18:50.275Z,58.06
2023-04-12T12:19:57.004Z,58.10
2023-04-12T12:20:59.112Z,58.07
2023-04-12T12:22:14.805Z,58.18
2023-04-12T12:24:59.451Z,57.98
2023-04-12T12:26:17.631Z,58.25
2023-04-12T12:27:08.136Z,58.20
2023-04-12T12:28:14.837Z,58.13
2023-04-12T12:29:19.324Z,58.19
2023-04-12T12:30:21.695Z,58.14
2023-04-12T12:31:25.875Z,58.13
2023-04-12T12:32:34.221Z,58.27
2023-04-12T12:33:46.381Z,58.23
2023-04-12T12:34:51.843Z,58.28
2023-04-12T12:37:18.490Z,58.21
2023-04-12T12:38:32.036Z,58.42
2023-04-12T12:39:28.905Z,58.52
2023-04-12T12:40:32.840Z,58.46
2023-04-12T12:41:35.253Z,58.53
2023-04-12T12:42:38.212Z,58.51
2023-04-12T12:43:46.873Z,58.44
2023-04-12T12:44:49.553Z,58.44
2023-04-12T12:45:51.480Z,58.40
2023-04-12T12:47:00.738Z,58.46
2023-04-12T12:48:03.298Z,58.59
2023-04-12T12:49:05.622Z,58.59
2023-04-12T12:50:09.068Z,58.63
2023-04-12T12:51:12.861Z,58.58
2023-04-12T12:52:18.196Z,58.58
2023-04-12T12:53:28.686Z,58.47
2023-04-12T12:54:40.496Z,58.47
2023-04-12T12:55:40.612Z,58.49
2023-04-12T12:56:46.278Z,58.65
2023-04-12T12:58:06.181Z,58.61
2023-04-12T12:58:57.638Z,58.50
2023-04-12T13:00:03.179Z,58.59
2023-04-12T13:01:09.007Z,58.61
2023-04-12T13:02:13.634Z,58.80
2023-04-12T13:03:17.539Z,58.71
2023-04-12T13:04:30.911Z,58.72
2023-04-12T13:05:34.021Z,58.66
2023-04-12T13:06:37.414Z,58.56
2023-04-12T13:07:40.806Z,58.58
2023-04-12T13:08:43.325Z,58.79
2023-04-12T13:09:45.666Z,58.76
2023-04-12T13:10:51.053Z,58.74
2023-04-12T13:11:56.568Z,58.61
2023-04-12T13:13:03.330Z,58.66
2023-04-12T13:14:05.642Z,58.68
2023-04-12T13:15:21.368Z,58.69
2023-04-12T13:16:15.663Z,58.68
2023-04-12T13:17:19.338Z,58.79
2023-04-12T13:18:21.743Z,58.72
2023-04-12T13:19:24.976Z,58.91
2023-04-12T13:20:30.054Z,58.64
2023-04-12T13:21:36.060Z,58.69
2023-04-12T13:22:40.117Z,58.69
2023-04-12T13:23:42.924Z,58.77
2023-04-12T13:24:48.347Z,58.79
2023-04-12T13:25:53.979Z,58.72
2023-04-12T13:26:56.701Z,58.81
2023-04-12T13:28:05.899Z,58.92
2023-04-12T13:29:09.856Z,58.80
2023-04-12T13:30:13.354Z,58.77
2023-04-12T13:31:21.990Z,58.77
2023-04-12T13:32:27.325Z,58.84
2023-04-12T13:33:30.303Z,58.95
2023-04-12T13:34:35.522Z,58.87
2023-04-12T13:35:40.750Z,58.86
2023-04-12T13:36:45.580Z,58.96
2023-04-12T13:37:47.788Z,58.79
2023-04-12T13:38:51.066Z,59.79
2023-04-12T13:39:57.047Z,60.49
2023-04-12T13:41:04.273Z,60.19
2023-04-12T13:42:07.088Z,60.20
2023-04-12T13:43:11.429Z,60.12
2023-04-12T13:44:13.948Z,59.94
2023-04-12T13:45:16.365Z,59.86
2023-04-12T13:46:21.698Z,59.62
2023-04-12T13:47:26.054Z,59.50
2023-04-12T13:48:28.714Z,59.52
2023-04-12T13:49:30.689Z,59.49
2023-04-12T13:50:32.905Z,59.56
2023-04-12T13:51:35.111Z,59.48
2023-04-12T13:52:39.008Z,59.31
2023-04-12T13:53:41.316Z,59.29
2023-04-12T13:54:52.572Z,59.22
2023-04-12T13:55:55.413Z,59.22
2023-04-12T13:56:59.221Z,59.28
2023-04-12T13:58:01.538Z,59.24
2023-04-12T13:59:04.198Z,59.23
2023-04-12T14:00:08.873Z,59.16
2023-04-12T14:01:11.025Z,59.21
2023-04-12T14:02:14.354Z,59.21
2023-04-12T14:03:17.088Z,59.25
2023-04-12T14:04:20.406Z,59.31
2023-04-12T14:05:22.794Z,59.19
2023-04-12T14:06:25.295Z,59.18
2023-04-12T14:07:27.998Z,59.24
2023-04-12T14:08:30.039Z,59.16
2023-04-12T14:09:32.772Z,59.15
2023-04-12T14:10:35.081Z,59.14
2023-04-12T14:11:47.842Z,59.14
2023-04-12T14:12:50.409Z,59.30
2023-04-12T14:13:52.580Z,59.30
2023-04-12T14:14:56.865Z,59.12
2023-04-12T14:16:00.540Z,59.23
2023-04-12T14:17:02.679Z,59.33
2023-04-12T14:18:05.022Z,59.33
2023-04-12T14:19:10.707Z,59.09
2023-04-12T14:20:14.001Z,59.02
2023-04-12T14:21:16.093Z,59.05